createdAt,value
2019-04-16T00:01:50.116Z,10.73
2019-04-16T00:04:44.238Z,10.53
2019-04-16T00:07:31.364Z,10.40
2019-04-16T00:10:07.726Z,11.00
2019-04-16T00:13:05.120Z,10.40
2019-04-16T00:15:34.519Z,10.77
2019-04-16T00:18:04.004Z,10.33
2019-04-16T00:20:36.921Z,10.10
2019-04-16T00:23:07.444Z,10.53
2019-04-16T00:25:36.876Z,9.80
2019-04-16T00:28:05.953Z,9.93
2019-04-16T00:30:36.331Z,9.93
2019-04-16T00:33:07.734Z,10.07
2019-04-16T00:35:34.749Z,10.57
2019-04-16T00:38:04.109Z,9.93
2019-04-16T00:40:33.226Z,10.43
2019-04-16T00:43:02.495Z,10.47
2019-04-16T00:45:31.780Z,10.87
2019-04-16T00:48:01.233Z,10.80
2019-04-16T00:50:30.586Z,10.67
2019-04-16T00:53:00.018Z,11.07
2019-04-16T00:55:29.222Z,10.33
2019-04-16T00:57:58.510Z,10.30
2019-04-16T01:00:30.620Z,10.13
2019-04-16T01:02:57.194Z,10.43
2019-04-16T01:05:26.708Z,9.83
2019-04-16T01:07:55.881Z,10.33
2019-04-16T01:10:25.507Z,10.20
2019-04-16T01:12:54.711Z,10.03
2019-04-16T01:15:23.829Z,9.97
2019-04-16T01:17:52.915Z,10.47
2019-04-16T01:20:22.124Z,10.47
2019-04-16T01:22:51.331Z,10.70
2019-04-16T01:25:23.274Z,10.83
2019-04-16T01:27:53.959Z,10.27
2019-04-16T01:30:47.733Z,10.03
2019-04-16T01:33:22.589Z,10.40
2019-04-16T01:36:03.894Z,10.57
2019-04-16T01:38:37.710Z,10.83
2019-04-16T01:41:09.966Z,10.80
2019-04-16T01:43:39.018Z,12.13
2019-04-16T01:46:08.379Z,10.77
2019-04-16T01:48:39.114Z,11.27
2019-04-16T01:51:06.787Z,10.67
2019-04-16T01:53:35.824Z,11.40
2019-04-16T01:56:05.015Z,11.10
2019-04-16T01:58:34.672Z,10.63
2019-04-16T02:01:03.384Z,11.27
2019-04-16T02:03:32.493Z,10.70
2019-04-16T02:06:01.726Z,10.80
2019-04-16T02:08:31.705Z,13.48
2019-04-16T02:11:00.064Z,10.93
2019-04-16T02:13:29.448Z,11.60
2019-04-16T02:15:58.581Z,11.77
2019-04-16T02:18:29.815Z,10.93
2019-04-16T02:20:57.029Z,11.53
2019-04-16T02:23:26.240Z,10.73
2019-04-16T02:25:55.368Z,11.43
2019-04-16T02:28:27.938Z,11.37
2019-04-16T02:30:53.655Z,11.57
2019-04-16T02:33:22.866Z,11.43
2019-04-16T02:35:52.072Z,11.80
2019-04-16T02:38:21.184Z,11.70
2019-04-16T02:40:52.812Z,11.17
2019-04-16T02:43:19.433Z,11.17
2019-04-16T02:45:48.663Z,11.97
2019-04-16T02:48:18.118Z,13.08
2019-04-16T02:50:48.644Z,12.00
2019-04-16T02:53:58.792Z,11.23
2019-04-16T02:56:39.014Z,11.20
2019-04-16T02:59:13.550Z,11.90
2019-04-16T03:02:03.493Z,12.87
2019-04-16T03:04:36.743Z,11.80
2019-04-16T03:07:05.877Z,11.40
2019-04-16T03:09:39.798Z,12.63
2019-04-16T03:12:04.280Z,12.47
2019-04-16T03:14:33.475Z,12.53
2019-04-16T03:17:24.368Z,10.97
2019-04-16T03:19:53.562Z,11.50
2019-04-16T03:22:22.845Z,11.47
2019-04-16T03:24:51.968Z,11.60
2019-04-16T03:27:22.191Z,11.90
2019-04-16T03:29:50.302Z,12.17
2019-04-16T03:32:19.489Z,12.03
2019-04-16T03:34:50.549Z,11.63
2019-04-16T03:37:17.835Z,11.57
2019-04-16T03:39:46.938Z,11.07
2019-04-16T03:42:16.248Z,11.80
2019-04-16T03:44:45.450Z,11.60
2019-04-16T03:47:15.731Z,11.57
2019-04-16T03:49:43.700Z,11.70
2019-04-16T03:52:12.751Z,11.93
2019-04-16T03:54:41.928Z,11.93
2019-04-16T03:57:11.048Z,13.38
2019-04-16T03:59:40.798Z,11.87
2019-04-16T04:02:09.421Z,12.47
2019-04-16T04:04:38.560Z,11.10
2019-04-16T04:07:08.729Z,11.80
2019-04-16T04:09:37.036Z,12.27
2019-04-16T04:12:06.217Z,12.00
2019-04-16T04:14:35.395Z,11.80
2019-04-16T04:17:06.695Z,12.17
2019-04-16T04:19:34.034Z,12.03
2019-04-16T04:22:03.107Z,12.10
2019-04-16T04:24:32.299Z,11.33
2019-04-16T04:27:01.728Z,11.50
2019-04-16T04:29:30.768Z,11.73
2019-04-16T04:32:03.056Z,12.13
2019-04-16T04:34:29.217Z,12.23
2019-04-16T04:36:59.741Z,12.00
2019-04-16T04:39:27.624Z,11.37
2019-04-16T04:41:57.275Z,11.73
2019-04-16T04:44:25.915Z,12.23
2019-04-16T04:46:55.114Z,10.87
2019-04-16T04:49:24.209Z,12.70
2019-04-16T04:51:53.415Z,12.10
2019-04-16T04:54:23.541Z,11.17
2019-04-16T04:56:53.041Z,12.13
2019-04-16T04:59:22.231Z,12.13
2019-04-16T05:01:51.545Z,11.50
2019-04-16T05:04:32.331Z,13.80
2019-04-16T05:07:04.733Z,12.30
2019-04-16T05:09:35.402Z,12.60
2019-04-16T05:12:02.019Z,12.63
2019-04-16T05:14:31.347Z,13.90
2019-04-16T05:17:00.581Z,12.13
2019-04-16T05:19:29.733Z,12.33
2019-04-16T05:21:59.048Z,11.70
2019-04-16T05:24:29.166Z,11.97
2019-04-16T05:26:57.516Z,11.87
2019-04-16T05:29:26.709Z,12.03
2019-04-16T05:31:57.457Z,11.07
2019-04-16T05:34:25.113Z,11.23
2019-04-16T05:36:54.697Z,11.83
2019-04-16T05:39:24.378Z,11.73
2019-04-16T05:41:53.606Z,11.47
2019-04-16T05:44:22.423Z,11.93
2019-04-16T05:46:51.634Z,11.30
2019-04-16T05:49:24.640Z,10.77
2019-04-16T05:51:50.355Z,11.87
2019-04-16T05:54:37.477Z,11.37
2019-04-16T05:57:06.962Z,11.83
2019-04-16T05:59:36.280Z,12.47
2019-04-16T06:02:15.196Z,11.50
2019-04-16T06:04:41.771Z,11.30
2019-04-16T06:07:11.109Z,11.83
2019-04-16T06:09:41.508Z,11.10
2019-04-16T06:12:09.735Z,12.80
2019-04-16T06:14:49.678Z,12.37
2019-04-16T06:17:32.170Z,10.33
2019-04-16T06:20:20.502Z,11.07
2019-04-16T06:23:09.224Z,10.97
2019-04-16T06:26:03.652Z,10.77
2019-04-16T06:28:54.945Z,10.73
2019-04-16T06:31:39.073Z,10.47
2019-04-16T06:34:36.476Z,10.10
2019-04-16T06:37:26.576Z,12.23
2019-04-16T06:40:03.835Z,10.87
2019-04-16T06:42:39.871Z,10.63
2019-04-16T06:45:24.263Z,10.30
2019-04-16T06:48:01.662Z,11.00
2019-04-16T06:50:49.989Z,10.47
2019-04-16T06:53:25.230Z,11.53
2019-04-16T06:56:13.268Z,10.43
2019-04-16T06:59:04.687Z,10.63
2019-04-16T07:01:55.542Z,11.60
2019-04-16T07:04:36.403Z,10.30
2019-04-16T07:07:39.579Z,10.33
2019-04-16T07:10:06.763Z,10.30
2019-04-16T07:12:38.439Z,10.33
2019-04-16T07:15:05.952Z,11.63
2019-04-16T07:17:35.267Z,10.30
2019-04-16T07:20:05.097Z,11.07
2019-04-16T07:22:33.994Z,10.73
2019-04-16T07:25:04.411Z,10.63
2019-04-16T07:28:03.662Z,10.77
2019-04-16T07:30:57.920Z,11.53
2019-04-16T07:33:54.658Z,10.70
2019-04-16T07:36:42.975Z,11.20
2019-04-16T07:39:29.694Z,11.73
2019-04-16T07:42:26.235Z,11.47
2019-04-16T07:45:03.845Z,10.90
2019-04-16T07:47:48.321Z,10.93
2019-04-16T07:50:45.005Z,11.30
2019-04-16T07:53:36.310Z,11.05
2019-04-16T07:56:13.821Z,10.93
2019-04-16T07:58:43.024Z,11.53
2019-04-16T08:01:16.203Z,11.73
2019-04-16T08:03:41.592Z,11.15
2019-04-16T08:06:14.356Z,11.90
2019-04-16T08:08:40.639Z,11.85
2019-04-16T08:11:09.891Z,11.22
2019-04-16T08:13:39.199Z,10.68
2019-04-16T08:16:08.436Z,11.85
2019-04-16T08:18:47.751Z,10.63
2019-04-16T08:21:17.059Z,11.93
2019-04-16T08:24:11.320Z,11.08
2019-04-16T08:26:41.626Z,11.80
2019-04-16T08:29:09.926Z,12.43
2019-04-16T08:31:44.556Z,10.85
2019-04-16T08:34:10.935Z,11.93
2019-04-16T08:36:40.204Z,11.83
2019-04-16T08:39:11.600Z,11.93
2019-04-16T08:41:40.583Z,11.90
2019-04-16T08:44:10.768Z,11.65
2019-04-16T08:46:40.405Z,11.65
2019-04-16T08:49:08.729Z,11.85
2019-04-16T08:52:02.216Z,12.37
2019-04-16T08:55:04.621Z,11.73
2019-04-16T09:04:14.532Z,11.73
2019-04-16T09:07:12.149Z,12.35
2019-04-16T09:09:57.003Z,12.75
2019-04-16T09:15:40.396Z,13.20
2019-04-16T09:18:31.881Z,12.90
2019-04-16T09:21:11.496Z,12.33
2019-04-16T09:23:50.857Z,14.40
2019-04-16T09:26:39.354Z,12.95
2019-04-16T09:29:34.122Z,12.90
2019-04-16T09:35:44.879Z,13.50
2019-04-16T09:38:54.633Z,13.72
2019-04-16T09:41:57.309Z,13.05
2019-04-16T09:44:31.542Z,13.20
2019-04-16T09:47:05.230Z,14.33
2019-04-16T09:49:51.508Z,13.50
2019-04-16T09:55:51.367Z,15.05
2019-04-16T10:02:33.633Z,13.55
2019-04-16T10:05:13.289Z,14.45
2019-04-16T10:11:35.759Z,13.18
2019-04-16T10:14:54.175Z,13.15
2019-04-16T10:17:23.427Z,14.28
2019-04-16T10:23:00.049Z,14.70
2019-04-16T10:29:18.556Z,13.85
2019-04-16T10:32:57.303Z,14.73
2019-04-16T10:39:10.365Z,15.63
2019-04-16T10:39:11.797Z,14.75
2019-04-16T10:41:56.486Z,15.45
2019-04-16T10:56:03.044Z,15.25
2019-04-16T10:59:10.441Z,14.47
2019-04-16T11:06:23.816Z,14.65
2019-04-16T11:09:57.214Z,14.95
2019-04-16T11:21:50.477Z,15.60
2019-04-16T11:24:27.370Z,16.60
2019-04-16T11:27:17.729Z,15.40
2019-04-16T11:29:50.408Z,15.50
2019-04-16T11:32:47.845Z,16.93
2019-04-16T11:35:58.837Z,16.20
2019-04-16T11:39:24.920Z,17.27
2019-04-16T11:42:08.381Z,16.75
2019-04-16T11:48:30.614Z,16.55
2019-04-16T11:49:29.510Z,16.35
2019-04-16T11:51:55.675Z,16.70
2019-04-16T11:55:03.244Z,15.93
2019-04-16T12:04:14.877Z,17.27
2019-04-16T12:07:29.502Z,16.12
2019-04-16T12:17:19.021Z,17.80
2019-04-16T12:20:40.733Z,17.32
2019-04-16T12:27:18.336Z,17.45
2019-04-16T12:30:16.752Z,17.67
2019-04-16T12:33:15.919Z,16.90
2019-04-16T12:36:17.440Z,16.75
2019-04-16T12:39:53.979Z,18.23
2019-04-16T12:43:15.178Z,18.17
2019-04-16T12:45:56.964Z,18.27
2019-04-16T12:52:31.441Z,17.73
2019-04-16T12:55:03.814Z,18.02
2019-04-16T12:58:53.129Z,18.32
2019-04-16T13:02:12.670Z,20.97
2019-04-16T13:07:09.526Z,18.27
2019-04-16T13:08:42.280Z,17.62
2019-04-16T13:11:36.119Z,19.00
2019-04-16T13:17:47.897Z,17.87
2019-04-16T13:21:08.533Z,19.32
2019-04-16T13:23:50.336Z,17.60
2019-04-16T13:27:13.545Z,18.37
2019-04-16T13:30:18.167Z,17.37
2019-04-16T13:33:13.250Z,19.42
2019-04-16T13:35:57.271Z,18.42
2019-04-16T13:38:46.506Z,18.05
2019-04-16T13:42:01.743Z,19.70
2019-04-16T13:44:49.233Z,19.62
2019-04-16T13:48:13.900Z,18.60
2019-04-16T13:51:35.630Z,18.55
2019-04-16T13:54:38.288Z,20.17
2019-04-16T13:57:16.196Z,20.05
2019-04-16T14:00:04.396Z,19.27
2019-04-16T14:07:35.514Z,20.32
2019-04-16T14:10:29.594Z,19.25
2019-04-16T14:13:12.355Z,22.30
2019-04-16T14:15:44.799Z,20.85
2019-04-16T14:24:51.475Z,21.20
2019-04-16T14:27:55.381Z,20.97
2019-04-16T14:31:00.592Z,22.45
2019-04-16T14:37:03.748Z,20.52
2019-04-16T14:40:28.645Z,21.57
2019-04-16T14:46:34.012Z,20.85
2019-04-16T14:49:38.318Z,21.40
2019-04-16T14:52:42.905Z,22.62
2019-04-16T14:55:42.096Z,21.75
2019-04-16T15:02:32.118Z,20.25
2019-04-16T15:05:09.424Z,20.52
2019-04-16T15:08:00.161Z,20.95
2019-04-16T15:10:46.871Z,21.52
2019-04-16T15:13:20.948Z,22.22
2019-04-16T15:16:10.896Z,21.45
2019-04-16T15:18:54.467Z,21.60
2019-04-16T15:21:57.689Z,21.85
2019-04-16T15:24:42.111Z,21.12
2019-04-16T15:27:33.019Z,21.05
2019-04-16T15:30:36.114Z,20.65
2019-04-16T15:33:23.089Z,21.45
2019-04-16T15:35:58.660Z,21.25
2019-04-16T15:38:49.659Z,21.25
2019-04-16T15:41:23.180Z,22.48
2019-04-16T15:44:22.461Z,20.95
2019-04-16T15:47:14.985Z,21.50
2019-04-16T15:49:59.784Z,21.20
2019-04-16T15:52:41.944Z,20.35
2019-04-16T15:55:30.036Z,23.62
2019-04-16T15:58:11.225Z,20.50
2019-04-16T16:01:06.450Z,21.02
2019-04-16T16:03:54.423Z,21.00
2019-04-16T16:06:24.994Z,20.77
2019-04-16T16:09:16.352Z,21.53
2019-04-16T16:11:59.495Z,20.90
2019-04-16T16:14:33.238Z,20.40
2019-04-16T16:16:57.684Z,20.37
2019-04-16T16:19:27.702Z,19.37
2019-04-16T16:21:56.894Z,21.63
2019-04-16T16:24:25.963Z,20.75
2019-04-16T16:26:55.048Z,19.45
2019-04-16T16:29:24.105Z,21.07
2019-04-16T16:31:53.459Z,21.03
2019-04-16T16:34:22.701Z,20.70
2019-04-16T16:36:51.675Z,20.77
2019-04-16T16:39:20.750Z,20.33
2019-04-16T16:41:50.460Z,19.92
2019-04-16T16:44:19.459Z,20.82
2019-04-16T16:47:13.810Z,20.37
2019-04-16T16:49:42.857Z,20.17
2019-04-16T16:52:33.908Z,20.15
2019-04-16T16:55:04.057Z,19.20
2019-04-16T16:57:40.400Z,19.67
2019-04-16T17:00:28.601Z,19.70
2019-04-16T17:03:08.641Z,21.20
2019-04-16T17:05:37.569Z,19.90
2019-04-16T17:08:06.851Z,19.87
2019-04-16T17:10:35.963Z,20.20
2019-04-16T17:13:05.171Z,19.87
2019-04-16T17:15:34.275Z,19.93
2019-04-16T17:18:03.410Z,20.30
2019-04-16T17:20:32.583Z,20.83
2019-04-16T17:23:01.621Z,23.07
2019-04-16T17:25:36.458Z,20.93
2019-04-16T17:28:00.196Z,19.83
2019-04-16T17:30:29.210Z,19.57
2019-04-16T17:32:58.423Z,21.03
2019-04-16T17:35:27.499Z,20.30
2019-04-16T17:38:01.564Z,19.40
2019-04-16T17:40:31.300Z,19.23
2019-04-16T17:43:04.999Z,19.30
2019-04-16T17:45:50.364Z,19.80
2019-04-16T17:48:41.995Z,19.77
2019-04-16T17:51:23.629Z,20.33
2019-04-16T17:54:01.426Z,20.37
2019-04-16T17:57:05.226Z,19.37
2019-04-16T18:00:04.753Z,19.80
2019-04-16T18:02:49.028Z,20.23
2019-04-16T18:05:24.847Z,19.40
2019-04-16T18:08:11.723Z,18.63
2019-04-16T18:10:57.218Z,23.17
2019-04-16T18:13:37.872Z,19.97
2019-04-16T18:16:24.509Z,19.37
2019-04-16T18:19:08.226Z,19.50
2019-04-16T18:22:05.458Z,19.07
2019-04-16T18:24:49.717Z,19.70
2019-04-16T18:27:29.228Z,19.47
2019-04-16T18:30:15.500Z,21.23
2019-04-16T18:33:16.202Z,20.50
2019-04-16T18:35:54.934Z,19.60
2019-04-16T18:38:43.353Z,19.03
2019-04-16T18:41:21.682Z,19.87
2019-04-16T18:44:04.975Z,20.10
2019-04-16T18:49:46.160Z,20.70
2019-04-16T18:52:15.545Z,19.43
2019-04-16T18:54:45.937Z,19.97
2019-04-16T18:57:13.732Z,19.93
2019-04-16T18:59:43.244Z,20.07
2019-04-16T19:02:12.666Z,20.10
2019-04-16T19:04:41.882Z,20.83
2019-04-16T19:07:11.044Z,20.90
2019-04-16T19:09:40.413Z,19.43
2019-04-16T19:12:09.674Z,19.63
2019-04-16T19:14:38.748Z,20.63
2019-04-16T19:17:08.000Z,21.23
2019-04-16T19:19:37.888Z,19.90
2019-04-16T19:22:08.441Z,20.97
2019-04-16T19:24:37.925Z,23.75
2019-04-16T19:27:07.165Z,21.07
2019-04-16T19:29:36.415Z,20.37
2019-04-16T19:32:12.170Z,20.40
2019-04-16T19:34:43.382Z,23.35
2019-04-16T19:37:12.678Z,21.17
2019-04-16T19:39:43.750Z,20.90
2019-04-16T19:42:15.999Z,21.10
2019-04-16T19:44:55.768Z,21.27
2019-04-16T19:47:27.235Z,20.50
2019-04-16T19:50:02.462Z,20.97
2019-04-16T19:52:29.736Z,21.90
2019-04-16T19:54:58.910Z,20.57
2019-04-16T19:57:28.020Z,20.93
2019-04-16T20:04:41.401Z,20.97
2019-04-16T20:11:21.387Z,21.33
2019-04-16T20:13:54.840Z,21.27
2019-04-16T20:16:32.048Z,23.62
2019-04-16T20:18:59.691Z,21.27
2019-04-16T20:21:39.287Z,20.00
2019-04-16T20:24:08.560Z,21.40
2019-04-16T20:26:37.913Z,32.17
2019-04-16T20:29:33.738Z,22.43
2019-04-16T20:33:15.623Z,22.80
2019-04-16T20:36:02.235Z,22.17
2019-04-16T20:38:30.146Z,25.90
2019-04-16T20:41:18.108Z,22.27
2019-04-16T20:43:42.963Z,20.00
2019-04-16T20:46:43.686Z,21.57
2019-04-16T20:49:10.999Z,20.60
2019-04-16T20:51:40.260Z,19.50
2019-04-16T20:54:18.688Z,20.20
2019-04-16T20:56:50.011Z,21.00
2019-04-16T20:59:19.096Z,19.63
2019-04-16T21:02:16.658Z,21.17
2019-04-16T21:05:21.895Z,19.60
2019-04-16T21:08:01.573Z,20.37
2019-04-16T21:11:10.845Z,17.73
2019-04-16T21:14:25.474Z,18.70
2019-04-16T21:24:21.484Z,20.57
2019-04-16T21:26:51.157Z,22.60
2019-04-16T21:30:48.610Z,20.90
2019-04-16T21:34:37.461Z,20.40
2019-04-16T21:42:01.304Z,21.23
2019-04-16T21:46:40.416Z,20.23
2019-04-16T21:56:08.507Z,19.13
2019-04-16T22:09:55.925Z,20.77
2019-04-16T22:12:48.733Z,17.50
2019-04-16T22:19:29.713Z,18.23
2019-04-16T22:36:43.235Z,17.80
2019-04-16T22:43:35.384Z,16.67
2019-04-16T23:08:29.204Z,16.03
2019-04-16T23:09:36.396Z,16.47
2019-04-16T23:12:59.519Z,17.27
2019-04-16T23:16:45.878Z,16.93
2019-04-16T23:31:58.767Z,16.57
2019-04-16T23:38:57.061Z,16.97
2019-04-16T23:42:18.978Z,16.40
2019-04-16T23:52:42.924Z,17.90
